sensor_id;sensor_type;location;lat;lon;timestamp;P1;durP1;ratioP1;P2;durP2;ratioP2
73168;SDS011;61379;59.732;30.468;2023-05-10T00:01:17;14.48;;;9.48;;
73168;SDS011;61379;59.732;30.468;2023-05-10T00:03:43;15.10;;;9.23;;
73168;SDS011;61379;59.732;30.468;2023-05-10T00:06:10;15.43;;;9.80;;
73168;SDS011;61379;59.732;30.468;2023-05-10T00:08:38;16.60;;;9.70;;
73168;SDS011;61379;59.732;30.468;2023-05-10T00:11:05;14.60;;;9.27;;
73168;SDS011;61379;59.732;30.468;2023-05-10T00:13:32;24.83;;;10.20;;
73168;SDS011;61379;59.732;30.468;2023-05-10T00:15:59;15.30;;;9.30;;
73168;SDS011;61379;59.732;30.468;2023-05-10T00:18:25;14.98;;;9.98;;
73168;SDS011;61379;59.732;30.468;2023-05-10T00:20:52;18.45;;;9.07;;
73168;SDS011;61379;59.732;30.468;2023-05-10T00:23:19;13.52;;;9.95;;
73168;SDS011;61379;59.732;30.468;2023-05-10T00:25:47;19.10;;;10.85;;
73168;SDS011;61379;59.732;30.468;2023-05-10T00:28:14;23.90;;;10.35;;
73168;SDS011;61379;59.732;30.468;2023-05-10T00:30:40;16.67;;;10.35;;
73168;SDS011;61379;59.732;30.468;2023-05-10T00:33:07;13.90;;;9.63;;
73168;SDS011;61379;59.732;30.468;2023-05-10T00:35:34;16.05;;;9.93;;
73168;SDS011;61379;59.732;30.468;2023-05-10T00:38:01;16.50;;;9.90;;
73168;SDS011;61379;59.732;30.468;2023-05-10T00:40:28;13.93;;;10.20;;
73168;SDS011;61379;59.732;30.468;2023-05-10T00:42:57;18.27;;;10.13;;
73168;SDS011;61379;59.732;30.468;2023-05-10T00:45:24;13.15;;;9.07;;
73168;SDS011;61379;59.732;30.468;2023-05-10T00:47:51;14.73;;;9.43;;
73168;SDS011;61379;59.732;30.468;2023-05-10T00:50:20;13.98;;;9.43;;
73168;SDS011;61379;59.732;30.468;2023-05-10T00:52:47;15.68;;;9.73;;
73168;SDS011;61379;59.732;30.468;2023-05-10T00:55:14;15.73;;;9.07;;
73168;SDS011;61379;59.732;30.468;2023-05-10T00:57:41;17.40;;;9.60;;
73168;SDS011;61379;59.732;30.468;2023-05-10T01:00:10;18.63;;;8.70;;
73168;SDS011;61379;59.732;30.468;2023-05-10T01:02:37;13.68;;;9.45;;
73168;SDS011;61379;59.732;30.468;2023-05-10T01:05:04;15.35;;;9.18;;
73168;SDS011;61379;59.732;30.468;2023-05-10T01:07:31;15.77;;;9.43;;
73168;SDS011;61379;59.732;30.468;2023-05-10T01:09:58;18.30;;;9.40;;
73168;SDS011;61379;59.732;30.468;2023-05-10T01:12:25;17.60;;;10.23;;
73168;SDS011;61379;59.732;30.468;2023-05-10T01:14:52;16.50;;;10.80;;
73168;SDS011;61379;59.732;30.468;2023-05-10T01:17:20;18.08;;;10.10;;
73168;SDS011;61379;59.732;30.468;2023-05-10T01:19:48;16.73;;;10.38;;
73168;SDS011;61379;59.732;30.468;2023-05-10T01:22:32;17.55;;;9.25;;
73168;SDS011;61379;59.732;30.468;2023-05-10T01:25:11;15.00;;;9.02;;
73168;SDS011;61379;59.732;30.468;2023-05-10T01:35:39;20.77;;;10.93;;
73168;SDS011;61379;59.732;30.468;2023-05-10T01:38:09;24.67;;;11.50;;
73168;SDS011;61379;59.732;30.468;2023-05-10T01:40:39;21.30;;;11.32;;
73168;SDS011;61379;59.732;30.468;2023-05-10T01:43:08;21.55;;;11.02;;
73168;SDS011;61379;59.732;30.468;2023-05-10T01:45:39;17.98;;;11.27;;
73168;SDS011;61379;59.732;30.468;2023-05-10T01:48:07;16.85;;;11.43;;
73168;SDS011;61379;59.732;30.468;2023-05-10T01:50:35;17.02;;;11.57;;
73168;SDS011;61379;59.732;30.468;2023-05-10T01:53:05;19.35;;;11.63;;
73168;SDS011;61379;59.732;30.468;2023-05-10T01:55:34;17.85;;;10.40;;
73168;SDS011;61379;59.732;30.468;2023-05-10T01:58:02;15.93;;;10.85;;
73168;SDS011;61379;59.732;30.468;2023-05-10T02:00:30;15.82;;;10.98;;
73168;SDS011;61379;59.732;30.468;2023-05-10T02:02:57;19.40;;;11.57;;
73168;SDS011;61379;59.732;30.468;2023-05-10T02:05:25;22.58;;;12.82;;
73168;SDS011;61379;59.732;30.468;2023-05-10T02:07:53;18.02;;;12.02;;
73168;SDS011;61379;59.732;30.468;2023-05-10T02:10:22;16.92;;;12.32;;
73168;SDS011;61379;59.732;30.468;2023-05-10T02:12:48;18.38;;;10.55;;
73168;SDS011;61379;59.732;30.468;2023-05-10T02:15:20;19.40;;;11.93;;
73168;SDS011;61379;59.732;30.468;2023-05-10T02:17:47;17.35;;;11.30;;
73168;SDS011;61379;59.732;30.468;2023-05-10T02:20:15;22.88;;;12.80;;
73168;SDS011;61379;59.732;30.468;2023-05-10T02:22:42;18.90;;;11.98;;
73168;SDS011;61379;59.732;30.468;2023-05-10T02:25:09;21.42;;;12.57;;
73168;SDS011;61379;59.732;30.468;2023-05-10T02:27:38;19.52;;;12.38;;
73168;SDS011;61379;59.732;30.468;2023-05-10T02:30:05;18.65;;;12.13;;
73168;SDS011;61379;59.732;30.468;2023-05-10T02:32:33;12.65;;;10.75;;
73168;SDS011;61379;59.732;30.468;2023-05-10T02:35:01;17.67;;;12.30;;
73168;SDS011;61379;59.732;30.468;2023-05-10T02:37:30;18.38;;;11.60;;
73168;SDS011;61379;59.732;30.468;2023-05-10T02:39:58;18.90;;;11.30;;
73168;SDS011;61379;59.732;30.468;2023-05-10T02:42:25;19.67;;;12.07;;
73168;SDS011;61379;59.732;30.468;2023-05-10T02:44:54;20.65;;;12.50;;
73168;SDS011;61379;59.732;30.468;2023-05-10T02:47:22;15.48;;;11.85;;
73168;SDS011;61379;59.732;30.468;2023-05-10T02:49:49;12.90;;;10.93;;
73168;SDS011;61379;59.732;30.468;2023-05-10T02:52:24;12.82;;;11.02;;
73168;SDS011;61379;59.732;30.468;2023-05-10T02:54:54;13.93;;;10.40;;
73168;SDS011;61379;59.732;30.468;2023-05-10T02:57:22;17.02;;;9.70;;
73168;SDS011;61379;59.732;30.468;2023-05-10T03:02:19;15.07;;;10.85;;
73168;SDS011;61379;59.732;30.468;2023-05-10T03:04:46;11.20;;;9.25;;
73168;SDS011;61379;59.732;30.468;2023-05-10T03:07:13;11.60;;;9.05;;
73168;SDS011;61379;59.732;30.468;2023-05-10T03:09:40;15.13;;;9.80;;
73168;SDS011;61379;59.732;30.468;2023-05-10T03:12:07;14.52;;;10.00;;
73168;SDS011;61379;59.732;30.468;2023-05-10T03:14:42;12.00;;;10.20;;
73168;SDS011;61379;59.732;30.468;2023-05-10T03:17:10;15.68;;;10.00;;
73168;SDS011;61379;59.732;30.468;2023-05-10T03:19:42;16.83;;;9.20;;
73168;SDS011;61379;59.732;30.468;2023-05-10T03:22:10;16.17;;;9.27;;
73168;SDS011;61379;59.732;30.468;2023-05-10T03:24:37;16.10;;;10.45;;
73168;SDS011;61379;59.732;30.468;2023-05-10T03:27:05;12.35;;;9.88;;
73168;SDS011;61379;59.732;30.468;2023-05-10T03:29:32;11.93;;;10.10;;
73168;SDS011;61379;59.732;30.468;2023-05-10T03:31:59;16.33;;;10.07;;
73168;SDS011;61379;59.732;30.468;2023-05-10T03:34:26;14.15;;;9.43;;
73168;SDS011;61379;59.732;30.468;2023-05-10T03:36:57;10.35;;;8.80;;
73168;SDS011;61379;59.732;30.468;2023-05-10T03:39:24;18.45;;;10.48;;
73168;SDS011;61379;59.732;30.468;2023-05-10T03:41:51;12.18;;;9.82;;
73168;SDS011;61379;59.732;30.468;2023-05-10T03:44:17;16.08;;;9.63;;
73168;SDS011;61379;59.732;30.468;2023-05-10T03:46:44;15.88;;;10.13;;
73168;SDS011;61379;59.732;30.468;2023-05-10T03:49:11;14.55;;;10.00;;
73168;SDS011;61379;59.732;30.468;2023-05-10T03:51:38;18.52;;;10.88;;
73168;SDS011;61379;59.732;30.468;2023-05-10T03:54:06;19.52;;;10.90;;
73168;SDS011;61379;59.732;30.468;2023-05-10T03:56:33;18.23;;;10.38;;
73168;SDS011;61379;59.732;30.468;2023-05-10T03:59:00;24.50;;;11.60;;
73168;SDS011;61379;59.732;30.468;2023-05-10T04:01:27;11.82;;;9.73;;
73168;SDS011;61379;59.732;30.468;2023-05-10T04:03:53;12.02;;;9.48;;
73168;SDS011;61379;59.732;30.468;2023-05-10T04:06:20;15.43;;;9.23;;
73168;SDS011;61379;59.732;30.468;2023-05-10T04:08:47;14.23;;;9.93;;
73168;SDS011;61379;59.732;30.468;2023-05-10T04:11:15;14.73;;;10.18;;
73168;SDS011;61379;59.732;30.468;2023-05-10T04:13:42;14.57;;;9.07;;
73168;SDS011;61379;59.732;30.468;2023-05-10T04:16:09;13.18;;;9.63;;
73168;SDS011;61379;59.732;30.468;2023-05-10T04:18:35;13.40;;;9.57;;
73168;SDS011;61379;59.732;30.468;2023-05-10T04:21:02;13.57;;;10.23;;
73168;SDS011;61379;59.732;30.468;2023-05-10T04:23:29;19.10;;;10.52;;
73168;SDS011;61379;59.732;30.468;2023-05-10T04:25:59;17.10;;;9.93;;
73168;SDS011;61379;59.732;30.468;2023-05-10T04:28:27;15.18;;;10.35;;
73168;SDS011;61379;59.732;30.468;2023-05-10T04:31:00;11.50;;;9.48;;
73168;SDS011;61379;59.732;30.468;2023-05-10T04:33:26;13.65;;;9.10;;
73168;SDS011;61379;59.732;30.468;2023-05-10T04:35:53;11.98;;;9.40;;
73168;SDS011;61379;59.732;30.468;2023-05-10T04:38:20;17.38;;;10.50;;
73168;SDS011;61379;59.732;30.468;2023-05-10T04:40:47;13.88;;;9.40;;
73168;SDS011;61379;59.732;30.468;2023-05-10T04:43:13;11.75;;;9.52;;
73168;SDS011;61379;59.732;30.468;2023-05-10T04:45:41;15.52;;;9.75;;
73168;SDS011;61379;59.732;30.468;2023-05-10T04:48:08;12.00;;;9.25;;
73168;SDS011;61379;59.732;30.468;2023-05-10T04:50:35;12.85;;;9.38;;
73168;SDS011;61379;59.732;30.468;2023-05-10T04:53:02;12.48;;;9.88;;
73168;SDS011;61379;59.732;30.468;2023-05-10T04:55:28;13.20;;;9.88;;
73168;SDS011;61379;59.732;30.468;2023-05-10T04:57:55;17.45;;;10.93;;
73168;SDS011;61379;59.732;30.468;2023-05-10T05:00:22;13.30;;;9.75;;
73168;SDS011;61379;59.732;30.468;2023-05-10T05:02:51;13.45;;;9.23;;
73168;SDS011;61379;59.732;30.468;2023-05-10T05:05:18;16.02;;;10.02;;
73168;SDS011;61379;59.732;30.468;2023-05-10T05:07:44;17.10;;;9.18;;
73168;SDS011;61379;59.732;30.468;2023-05-10T05:10:11;11.52;;;9.65;;
73168;SDS011;61379;59.732;30.468;2023-05-10T05:12:38;13.60;;;8.93;;
73168;SDS011;61379;59.732;30.468;2023-05-10T05:15:05;18.77;;;10.02;;
73168;SDS011;61379;59.732;30.468;2023-05-10T05:17:33;12.43;;;9.15;;
73168;SDS011;61379;59.732;30.468;2023-05-10T05:20:01;10.32;;;8.48;;
73168;SDS011;61379;59.732;30.468;2023-05-10T05:22:30;13.35;;;9.82;;
73168;SDS011;61379;59.732;30.468;2023-05-10T05:24:56;14.05;;;9.75;;
73168;SDS011;61379;59.732;30.468;2023-05-10T05:27:24;13.07;;;9.38;;
73168;SDS011;61379;59.732;30.468;2023-05-10T05:29:53;11.73;;;8.60;;
73168;SDS011;61379;59.732;30.468;2023-05-10T05:32:19;13.43;;;9.05;;
73168;SDS011;61379;59.732;30.468;2023-05-10T05:34:47;9.98;;;8.38;;
73168;SDS011;61379;59.732;30.468;2023-05-10T05:37:15;12.32;;;9.38;;
73168;SDS011;61379;59.732;30.468;2023-05-10T05:39:42;10.93;;;8.80;;
73168;SDS011;61379;59.732;30.468;2023-05-10T05:42:09;13.80;;;9.20;;
73168;SDS011;61379;59.732;30.468;2023-05-10T05:44:36;8.85;;;7.63;;
73168;SDS011;61379;59.732;30.468;2023-05-10T05:47:03;11.40;;;7.20;;
73168;SDS011;61379;59.732;30.468;2023-05-10T05:49:29;9.57;;;7.25;;
73168;SDS011;61379;59.732;30.468;2023-05-10T05:51:58;14.30;;;7.60;;
73168;SDS011;61379;59.732;30.468;2023-05-10T05:54:26;9.02;;;7.35;;
73168;SDS011;61379;59.732;30.468;2023-05-10T05:56:53;11.43;;;7.10;;
73168;SDS011;61379;59.732;30.468;2023-05-10T05:59:20;9.85;;;7.55;;
73168;SDS011;61379;59.732;30.468;2023-05-10T06:01:47;6.45;;;5.85;;
73168;SDS011;61379;59.732;30.468;2023-05-10T06:04:14;6.75;;;6.13;;
73168;SDS011;61379;59.732;30.468;2023-05-10T06:06:40;6.93;;;6.22;;
73168;SDS011;61379;59.732;30.468;2023-05-10T06:09:07;7.78;;;7.07;;
73168;SDS011;61379;59.732;30.468;2023-05-10T06:11:36;9.55;;;7.97;;
73168;SDS011;61379;59.732;30.468;2023-05-10T06:14:03;9.68;;;7.25;;
73168;SDS011;61379;59.732;30.468;2023-05-10T06:16:30;9.35;;;6.63;;
73168;SDS011;61379;59.732;30.468;2023-05-10T06:18:57;13.40;;;7.40;;
73168;SDS011;61379;59.732;30.468;2023-05-10T06:21:23;11.23;;;7.18;;
73168;SDS011;61379;59.732;30.468;2023-05-10T06:23:50;7.82;;;7.03;;
73168;SDS011;61379;59.732;30.468;2023-05-10T06:26:17;7.18;;;6.47;;
73168;SDS011;61379;59.732;30.468;2023-05-10T06:28:45;8.73;;;7.00;;
73168;SDS011;61379;59.732;30.468;2023-05-10T06:31:12;7.78;;;6.97;;
73168;SDS011;61379;59.732;30.468;2023-05-10T06:33:39;8.18;;;6.97;;
73168;SDS011;61379;59.732;30.468;2023-05-10T06:36:06;7.97;;;7.28;;
73168;SDS011;61379;59.732;30.468;2023-05-10T06:38:33;8.75;;;7.65;;
73168;SDS011;61379;59.732;30.468;2023-05-10T06:41:00;10.30;;;7.35;;
73168;SDS011;61379;59.732;30.468;2023-05-10T06:43:27;9.45;;;7.28;;
73168;SDS011;61379;59.732;30.468;2023-05-10T06:45:56;9.02;;;7.65;;
73168;SDS011;61379;59.732;30.468;2023-05-10T06:48:23;10.18;;;7.10;;
73168;SDS011;61379;59.732;30.468;2023-05-10T06:50:49;8.88;;;8.07;;
73168;SDS011;61379;59.732;30.468;2023-05-10T06:53:16;8.10;;;6.97;;
73168;SDS011;61379;59.732;30.468;2023-05-10T06:55:43;7.60;;;6.80;;
73168;SDS011;61379;59.732;30.468;2023-05-10T06:58:10;8.68;;;7.72;;
73168;SDS011;61379;59.732;30.468;2023-05-10T07:00:37;9.32;;;8.32;;
73168;SDS011;61379;59.732;30.468;2023-05-10T07:03:07;9.88;;;8.68;;
73168;SDS011;61379;59.732;30.468;2023-05-10T07:05:34;9.57;;;7.45;;
73168;SDS011;61379;59.732;30.468;2023-05-10T07:08:00;7.80;;;7.10;;
73168;SDS011;61379;59.732;30.468;2023-05-10T07:10:27;9.55;;;6.70;;
73168;SDS011;61379;59.732;30.468;2023-05-10T07:12:54;7.85;;;7.05;;
73168;SDS011;61379;59.732;30.468;2023-05-10T07:15:21;8.82;;;7.13;;
73168;SDS011;61379;59.732;30.468;2023-05-10T07:17:48;10.23;;;6.43;;
73168;SDS011;61379;59.732;30.468;2023-05-10T07:20:16;9.10;;;6.40;;
73168;SDS011;61379;59.732;30.468;2023-05-10T07:22:43;12.02;;;7.88;;
73168;SDS011;61379;59.732;30.468;2023-05-10T07:25:10;7.93;;;7.13;;
73168;SDS011;61379;59.732;30.468;2023-05-10T07:27:36;9.95;;;6.40;;
73168;SDS011;61379;59.732;30.468;2023-05-10T07:30:04;7.32;;;6.72;;
73168;SDS011;61379;59.732;30.468;2023-05-10T07:32:33;7.18;;;6.47;;
73168;SDS011;61379;59.732;30.468;2023-05-10T07:35:00;7.35;;;6.78;;
73168;SDS011;61379;59.732;30.468;2023-05-10T07:37:31;10.63;;;7.65;;
73168;SDS011;61379;59.732;30.468;2023-05-10T07:39:58;7.50;;;6.38;;
73168;SDS011;61379;59.732;30.468;2023-05-10T07:42:24;7.78;;;6.53;;
73168;SDS011;61379;59.732;30.468;2023-05-10T07:44:51;7.38;;;6.78;;
73168;SDS011;61379;59.732;30.468;2023-05-10T07:47:18;9.10;;;6.93;;
73168;SDS011;61379;59.732;30.468;2023-05-10T07:49:44;7.25;;;6.50;;
73168;SDS011;61379;59.732;30.468;2023-05-10T07:52:11;11.23;;;8.13;;
73168;SDS011;61379;59.732;30.468;2023-05-10T07:54:40;8.05;;;6.88;;
73168;SDS011;61379;59.732;30.468;2023-05-10T07:57:06;7.75;;;7.15;;
73168;SDS011;61379;59.732;30.468;2023-05-10T07:59:33;6.57;;;6.05;;
73168;SDS011;61379;59.732;30.468;2023-05-10T08:02:00;7.35;;;6.70;;
73168;SDS011;61379;59.732;30.468;2023-05-10T08:04:27;7.43;;;6.65;;
73168;SDS011;61379;59.732;30.468;2023-05-10T08:06:53;6.90;;;6.30;;
73168;SDS011;61379;59.732;30.468;2023-05-10T08:09:20;7.30;;;6.20;;
73168;SDS011;61379;59.732;30.468;2023-05-10T08:11:50;9.85;;;6.45;;
73168;SDS011;61379;59.732;30.468;2023-05-10T08:14:17;8.32;;;7.63;;
73168;SDS011;61379;59.732;30.468;2023-05-10T08:16:44;9.73;;;7.68;;
73168;SDS011;61379;59.732;30.468;2023-05-10T08:19:10;8.35;;;7.18;;
73168;SDS011;61379;59.732;30.468;2023-05-10T08:21:37;8.50;;;7.60;;
73168;SDS011;61379;59.732;30.468;2023-05-10T08:24:05;8.85;;;7.82;;
73168;SDS011;61379;59.732;30.468;2023-05-10T08:26:32;7.60;;;6.90;;
73168;SDS011;61379;59.732;30.468;2023-05-10T08:29:00;8.35;;;6.80;;
73168;SDS011;61379;59.732;30.468;2023-05-10T08:31:27;9.55;;;7.30;;
73168;SDS011;61379;59.732;30.468;2023-05-10T08:33:54;7.95;;;7.35;;
73168;SDS011;61379;59.732;30.468;2023-05-10T08:36:20;9.02;;;8.15;;
73168;SDS011;61379;59.732;30.468;2023-05-10T08:38:49;8.55;;;7.85;;
73168;SDS011;61379;59.732;30.468;2023-05-10T08:41:17;8.98;;;7.10;;
73168;SDS011;61379;59.732;30.468;2023-05-10T08:43:46;8.50;;;7.75;;
73168;SDS011;61379;59.732;30.468;2023-05-10T08:46:15;8.95;;;8.05;;
73168;SDS011;61379;59.732;30.468;2023-05-10T08:48:43;8.82;;;8.00;;
73168;SDS011;61379;59.732;30.468;2023-05-10T08:51:09;9.30;;;7.45;;
73168;SDS011;61379;59.732;30.468;2023-05-10T08:53:38;9.35;;;8.02;;
73168;SDS011;61379;59.732;30.468;2023-05-10T08:56:05;9.73;;;8.18;;
73168;SDS011;61379;59.732;30.468;2023-05-10T08:58:32;9.32;;;8.27;;
73168;SDS011;61379;59.732;30.468;2023-05-10T09:00:59;9.52;;;8.60;;
73168;SDS011;61379;59.732;30.468;2023-05-10T09:03:29;16.70;;;9.40;;
73168;SDS011;61379;59.732;30.468;2023-05-10T09:05:56;9.93;;;8.80;;
73168;SDS011;61379;59.732;30.468;2023-05-10T09:08:23;9.63;;;7.93;;
73168;SDS011;61379;59.732;30.468;2023-05-10T09:10:51;13.52;;;7.75;;
73168;SDS011;61379;59.732;30.468;2023-05-10T09:13:18;8.55;;;7.93;;
73168;SDS011;61379;59.732;30.468;2023-05-10T09:15:45;8.15;;;7.22;;
73168;SDS011;61379;59.732;30.468;2023-05-10T09:18:12;8.63;;;7.82;;
73168;SDS011;61379;59.732;30.468;2023-05-10T09:20:40;8.35;;;7.55;;
73168;SDS011;61379;59.732;30.468;2023-05-10T09:23:07;9.75;;;7.88;;
73168;SDS011;61379;59.732;30.468;2023-05-10T09:25:34;8.23;;;7.50;;
73168;SDS011;61379;59.732;30.468;2023-05-10T09:28:01;9.35;;;8.45;;
73168;SDS011;61379;59.732;30.468;2023-05-10T09:30:28;7.88;;;7.07;;
73168;SDS011;61379;59.732;30.468;2023-05-10T09:32:56;8.10;;;7.30;;
73168;SDS011;61379;59.732;30.468;2023-05-10T09:35:24;8.07;;;7.22;;
73168;SDS011;61379;59.732;30.468;2023-05-10T09:37:53;8.52;;;7.68;;
73168;SDS011;61379;59.732;30.468;2023-05-10T09:47:39;8.07;;;7.47;;
73168;SDS011;61379;59.732;30.468;2023-05-10T09:50:06;9.82;;;7.93;;
73168;SDS011;61379;59.732;30.468;2023-05-10T09:52:46;9.73;;;8.18;;
73168;SDS011;61379;59.732;30.468;2023-05-10T09:55:14;9.45;;;8.38;;
73168;SDS011;61379;59.732;30.468;2023-05-10T09:57:41;9.25;;;8.38;;
73168;SDS011;61379;59.732;30.468;2023-05-10T10:00:08;8.70;;;7.82;;
73168;SDS011;61379;59.732;30.468;2023-05-10T10:02:36;8.45;;;7.75;;
73168;SDS011;61379;59.732;30.468;2023-05-10T10:05:03;8.32;;;7.25;;
73168;SDS011;61379;59.732;30.468;2023-05-10T10:07:30;8.52;;;7.82;;
73168;SDS011;61379;59.732;30.468;2023-05-10T10:09:56;7.97;;;7.32;;
73168;SDS011;61379;59.732;30.468;2023-05-10T10:12:26;7.78;;;6.68;;
73168;SDS011;61379;59.732;30.468;2023-05-10T10:14:53;8.70;;;7.90;;
73168;SDS011;61379;59.732;30.468;2023-05-10T10:17:19;8.38;;;7.70;;
73168;SDS011;61379;59.732;30.468;2023-05-10T10:19:47;9.73;;;7.72;;
73168;SDS011;61379;59.732;30.468;2023-05-10T10:22:14;7.80;;;7.18;;
73168;SDS011;61379;59.732;30.468;2023-05-10T10:24:41;8.85;;;7.93;;
73168;SDS011;61379;59.732;30.468;2023-05-10T10:27:10;9.27;;;7.82;;
73168;SDS011;61379;59.732;30.468;2023-05-10T10:29:44;8.45;;;7.72;;
73168;SDS011;61379;59.732;30.468;2023-05-10T10:32:18;10.63;;;9.70;;
73168;SDS011;61379;59.732;30.468;2023-05-10T10:34:46;7.82;;;7.13;;
73168;SDS011;61379;59.732;30.468;2023-05-10T10:37:12;8.48;;;7.47;;
73168;SDS011;61379;59.732;30.468;2023-05-10T10:39:39;8.68;;;7.78;;
73168;SDS011;61379;59.732;30.468;2023-05-10T10:42:06;8.73;;;7.97;;
73168;SDS011;61379;59.732;30.468;2023-05-10T10:44:33;13.00;;;8.25;;
73168;SDS011;61379;59.732;30.468;2023-05-10T10:47:04;8.65;;;7.80;;
73168;SDS011;61379;59.732;30.468;2023-05-10T10:49:37;8.13;;;7.18;;
73168;SDS011;61379;59.732;30.468;2023-05-10T10:52:15;8.23;;;7.25;;
73168;SDS011;61379;59.732;30.468;2023-05-10T10:54:46;8.23;;;7.60;;
73168;SDS011;61379;59.732;30.468;2023-05-10T10:57:17;7.68;;;7.03;;
73168;SDS011;61379;59.732;30.468;2023-05-10T11:02:18;7.90;;;7.13;;
73168;SDS011;61379;59.732;30.468;2023-05-10T11:04:58;8.30;;;7.60;;
73168;SDS011;61379;59.732;30.468;2023-05-10T11:07:26;7.53;;;6.93;;
73168;SDS011;61379;59.732;30.468;2023-05-10T11:09:52;8.68;;;7.93;;
73168;SDS011;61379;59.732;30.468;2023-05-10T11:12:20;8.00;;;7.30;;
73168;SDS011;61379;59.732;30.468;2023-05-10T11:14:49;8.80;;;8.10;;
73168;SDS011;61379;59.732;30.468;2023-05-10T11:17:23;8.45;;;7.75;;
73168;SDS011;61379;59.732;30.468;2023-05-10T11:20:06;8.27;;;7.75;;
73168;SDS011;61379;59.732;30.468;2023-05-10T11:22:45;8.93;;;8.13;;
73168;SDS011;61379;59.732;30.468;2023-05-10T11:25:15;9.13;;;8.50;;
73168;SDS011;61379;59.732;30.468;2023-05-10T11:27:42;8.02;;;7.28;;
73168;SDS011;61379;59.732;30.468;2023-05-10T11:30:09;8.07;;;7.57;;
73168;SDS011;61379;59.732;30.468;2023-05-10T11:32:38;8.23;;;7.57;;
73168;SDS011;61379;59.732;30.468;2023-05-10T11:35:08;8.18;;;7.40;;
73168;SDS011;61379;59.732;30.468;2023-05-10T11:37:35;8.75;;;8.05;;
73168;SDS011;61379;59.732;30.468;2023-05-10T11:40:03;8.63;;;7.97;;
73168;SDS011;61379;59.732;30.468;2023-05-10T11:42:30;8.20;;;7.50;;
73168;SDS011;61379;59.732;30.468;2023-05-10T11:44:57;8.77;;;8.07;;
73168;SDS011;61379;59.732;30.468;2023-05-10T11:47:24;9.27;;;8.43;;
73168;SDS011;61379;59.732;30.468;2023-05-10T11:49:52;10.65;;;7.65;;
73168;SDS011;61379;59.732;30.468;2023-05-10T11:52:18;8.23;;;7.60;;
73168;SDS011;61379;59.732;30.468;2023-05-10T11:54:50;8.07;;;7.47;;
73168;SDS011;61379;59.732;30.468;2023-05-10T11:57:18;8.82;;;8.13;;
73168;SDS011;61379;59.732;30.468;2023-05-10T11:59:45;8.68;;;8.00;;
73168;SDS011;61379;59.732;30.468;2023-05-10T12:02:12;9.05;;;8.35;;
73168;SDS011;61379;59.732;30.468;2023-05-10T12:04:39;8.90;;;8.02;;
73168;SDS011;61379;59.732;30.468;2023-05-10T12:07:07;8.85;;;8.25;;
73168;SDS011;61379;59.732;30.468;2023-05-10T12:09:34;8.07;;;7.47;;
73168;SDS011;61379;59.732;30.468;2023-05-10T12:12:00;8.82;;;8.23;;
73168;SDS011;61379;59.732;30.468;2023-05-10T12:14:28;11.82;;;8.38;;
73168;SDS011;61379;59.732;30.468;2023-05-10T12:16:58;8.63;;;8.02;;
73168;SDS011;61379;59.732;30.468;2023-05-10T12:19:25;8.90;;;8.23;;
73168;SDS011;61379;59.732;30.468;2023-05-10T12:21:52;8.35;;;7.65;;
73168;SDS011;61379;59.732;30.468;2023-05-10T12:24:20;9.00;;;8.20;;
73168;SDS011;61379;59.732;30.468;2023-05-10T12:26:46;10.20;;;9.40;;
73168;SDS011;61379;59.732;30.468;2023-05-10T12:29:14;9.60;;;8.77;;
73168;SDS011;61379;59.732;30.468;2023-05-10T12:31:51;9.02;;;8.32;;
73168;SDS011;61379;59.732;30.468;2023-05-10T12:34:25;7.80;;;7.07;;
73168;SDS011;61379;59.732;30.468;2023-05-10T12:36:52;8.65;;;7.85;;
73168;SDS011;61379;59.732;30.468;2023-05-10T12:39:20;8.38;;;7.68;;
73168;SDS011;61379;59.732;30.468;2023-05-10T12:41:47;8.60;;;7.90;;
73168;SDS011;61379;59.732;30.468;2023-05-10T12:44:14;8.00;;;7.40;;
73168;SDS011;61379;59.732;30.468;2023-05-10T12:46:40;8.75;;;7.90;;
73168;SDS011;61379;59.732;30.468;2023-05-10T12:49:07;8.75;;;8.15;;
73168;SDS011;61379;59.732;30.468;2023-05-10T12:51:34;11.80;;;7.50;;
73168;SDS011;61379;59.732;30.468;2023-05-10T12:54:01;9.65;;;8.70;;
73168;SDS011;61379;59.732;30.468;2023-05-10T12:56:30;9.15;;;8.13;;
73168;SDS011;61379;59.732;30.468;2023-05-10T12:58:56;8.63;;;7.80;;
73168;SDS011;61379;59.732;30.468;2023-05-10T13:01:23;9.10;;;8.30;;
73168;SDS011;61379;59.732;30.468;2023-05-10T13:03:50;12.48;;;7.35;;
73168;SDS011;61379;59.732;30.468;2023-05-10T13:06:17;7.70;;;7.18;;
73168;SDS011;61379;59.732;30.468;2023-05-10T13:08:43;9.18;;;8.38;;
73168;SDS011;61379;59.732;30.468;2023-05-10T13:11:10;8.27;;;7.63;;
73168;SDS011;61379;59.732;30.468;2023-05-10T13:13:43;8.60;;;8.00;;
73168;SDS011;61379;59.732;30.468;2023-05-10T13:16:09;9.30;;;8.40;;
73168;SDS011;61379;59.732;30.468;2023-05-10T13:18:36;8.55;;;7.78;;
73168;SDS011;61379;59.732;30.468;2023-05-10T13:21:03;8.85;;;7.95;;
73168;SDS011;61379;59.732;30.468;2023-05-10T13:23:30;14.70;;;8.55;;
73168;SDS011;61379;59.732;30.468;2023-05-10T13:25:57;8.77;;;8.18;;
73168;SDS011;61379;59.732;30.468;2023-05-10T13:28:24;10.68;;;8.15;;
73168;SDS011;61379;59.732;30.468;2023-05-10T13:30:53;9.30;;;8.40;;
73168;SDS011;61379;59.732;30.468;2023-05-10T13:33:19;9.45;;;8.43;;
73168;SDS011;61379;59.732;30.468;2023-05-10T13:35:46;13.45;;;9.00;;
73168;SDS011;61379;59.732;30.468;2023-05-10T13:38:13;8.15;;;7.43;;
73168;SDS011;61379;59.732;30.468;2023-05-10T13:40:40;11.38;;;8.15;;
73168;SDS011;61379;59.732;30.468;2023-05-10T13:43:06;8.90;;;8.13;;
73168;SDS011;61379;59.732;30.468;2023-05-10T13:45:33;8.98;;;8.18;;
73168;SDS011;61379;59.732;30.468;2023-05-10T13:48:01;11.80;;;8.35;;
73168;SDS011;61379;59.732;30.468;2023-05-10T13:50:28;10.57;;;8.30;;
73168;SDS011;61379;59.732;30.468;2023-05-10T13:52:54;13.48;;;7.72;;
73168;SDS011;61379;59.732;30.468;2023-05-10T13:55:21;8.10;;;7.25;;
73168;SDS011;61379;59.732;30.468;2023-05-10T13:57:48;12.77;;;7.63;;
73168;SDS011;61379;59.732;30.468;2023-05-10T14:00:15;11.43;;;8.63;;
73168;SDS011;61379;59.732;30.468;2023-05-10T14:02:42;9.90;;;7.65;;
73168;SDS011;61379;59.732;30.468;2023-05-10T14:05:11;8.77;;;7.93;;
73168;SDS011;61379;59.732;30.468;2023-05-10T14:07:37;7.88;;;7.18;;
73168;SDS011;61379;59.732;30.468;2023-05-10T14:10:05;10.57;;;7.45;;
73168;SDS011;61379;59.732;30.468;2023-05-10T14:12:32;12.82;;;7.53;;
73168;SDS011;61379;59.732;30.468;2023-05-10T14:14:59;9.88;;;7.55;;
73168;SDS011;61379;59.732;30.468;2023-05-10T14:17:26;9.45;;;8.40;;
73168;SDS011;61379;59.732;30.468;2023-05-10T14:19:52;10.02;;;8.27;;
73168;SDS011;61379;59.732;30.468;2023-05-10T14:22:21;8.93;;;8.05;;
73168;SDS011;61379;59.732;30.468;2023-05-10T14:24:47;8.93;;;8.23;;
73168;SDS011;61379;59.732;30.468;2023-05-10T14:27:14;9.45;;;8.52;;
73168;SDS011;61379;59.732;30.468;2023-05-10T14:29:41;8.55;;;7.78;;
73168;SDS011;61379;59.732;30.468;2023-05-10T14:32:08;8.50;;;7.68;;
73168;SDS011;61379;59.732;30.468;2023-05-10T14:34:34;9.45;;;8.07;;
73168;SDS011;61379;59.732;30.468;2023-05-10T14:37:01;8.90;;;7.75;;
73168;SDS011;61379;59.732;30.468;2023-05-10T14:39:29;8.63;;;7.80;;
73168;SDS011;61379;59.732;30.468;2023-05-10T14:41:56;8.50;;;7.85;;
73168;SDS011;61379;59.732;30.468;2023-05-10T14:44:23;9.00;;;8.27;;
73168;SDS011;61379;59.732;30.468;2023-05-10T14:46:50;11.30;;;7.68;;
73168;SDS011;61379;59.732;30.468;2023-05-10T14:49:17;15.82;;;7.80;;